createdAt,value
2022-08-28T00:00:45.187Z,18.34
2022-08-28T00:03:32.335Z,18.32
2022-08-28T00:06:19.050Z,18.25
2022-08-28T00:09:05.299Z,18.17
2022-08-28T00:11:50.951Z,18.13
2022-08-28T00:14:36.829Z,18.15
2022-08-28T00:17:22.282Z,18.16
2022-08-28T00:20:10.332Z,18.16
2022-08-28T00:22:56.650Z,18.15
2022-08-28T00:25:42.459Z,18.15
2022-08-28T00:28:28.025Z,18.15
2022-08-28T00:31:13.608Z,18.14
2022-08-28T00:33:59.102Z,18.12
2022-08-28T00:36:44.638Z,18.08
2022-08-28T00:39:30.212Z,18.02
2022-08-28T00:42:15.660Z,18.02
2022-08-28T00:45:01.354Z,18.02
2022-08-28T00:47:47.262Z,18.01
2022-08-28T00:50:56.857Z,18.03
2022-08-28T00:53:46.379Z,18.04
2022-08-28T00:56:33.133Z,18.05
2022-08-28T00:59:21.691Z,18.07
2022-08-28T01:02:08.240Z,18.07
2022-08-28T01:04:55.249Z,18.07
2022-08-28T01:07:41.190Z,18.07
2022-08-28T01:10:30.712Z,18.07
2022-08-28T01:13:18.162Z,18.08
2022-08-28T01:16:05.580Z,18.07
2022-08-28T01:18:53.051Z,18.08
2022-08-28T01:22:00.475Z,18.08
2022-08-28T01:24:49.642Z,18.07
2022-08-28T01:27:36.629Z,18.07
2022-08-28T01:30:24.268Z,18.06
2022-08-28T01:33:10.280Z,18.06
2022-08-28T01:35:57.883Z,18.07
2022-08-28T01:38:46.977Z,18.09
2022-08-28T01:41:33.475Z,18.10
2022-08-28T01:44:24.392Z,18.11
2022-08-28T01:47:09.884Z,18.12
2022-08-28T01:49:55.359Z,18.10
2022-08-28T01:52:41.739Z,18.00
2022-08-28T01:55:29.487Z,17.91
2022-08-28T01:58:16.211Z,17.80
2022-08-28T02:01:02.179Z,17.75
2022-08-28T02:03:49.060Z,17.73
2022-08-28T02:06:34.805Z,17.74
2022-08-28T02:09:20.399Z,17.72
2022-08-28T02:12:06.784Z,17.71
2022-08-28T02:14:53.187Z,17.65
2022-08-28T02:17:38.912Z,17.67
2022-08-28T02:20:25.248Z,17.69
2022-08-28T02:23:11.258Z,17.71
2022-08-28T02:25:57.072Z,17.73
2022-08-28T02:28:43.404Z,17.78
2022-08-28T02:31:29.128Z,17.83
2022-08-28T02:34:14.900Z,17.87
2022-08-28T02:37:00.762Z,17.87
2022-08-28T02:39:46.447Z,17.85
2022-08-28T02:42:32.194Z,17.87
2022-08-28T02:45:19.360Z,17.88
2022-08-28T02:48:05.072Z,17.91
2022-08-28T02:51:02.967Z,17.94
2022-08-28T02:53:50.571Z,17.96
2022-08-28T02:56:36.057Z,17.99
2022-08-28T02:59:22.385Z,17.99
2022-08-28T03:02:08.260Z,17.99
2022-08-28T03:04:54.486Z,17.99
2022-08-28T03:07:40.452Z,18.00
2022-08-28T03:10:26.717Z,18.00
2022-08-28T03:13:26.514Z,17.94
2022-08-28T03:16:13.021Z,17.92
2022-08-28T03:18:58.649Z,17.94
2022-08-28T03:21:44.284Z,17.96
2022-08-28T03:24:30.005Z,17.99
2022-08-28T03:27:15.559Z,18.01
2022-08-28T03:30:02.698Z,18.01
2022-08-28T03:32:49.463Z,18.02
2022-08-28T03:35:34.859Z,18.02
2022-08-28T03:38:21.515Z,17.99
2022-08-28T03:41:13.611Z,17.98
2022-08-28T03:44:01.126Z,17.95
2022-08-28T03:46:46.731Z,17.94
2022-08-28T03:49:32.860Z,17.93
2022-08-28T03:52:18.448Z,17.92
2022-08-28T03:55:05.522Z,17.92
2022-08-28T03:57:51.618Z,17.94
2022-08-28T04:00:37.784Z,17.95
2022-08-28T04:03:23.644Z,17.94
2022-08-28T04:06:09.398Z,17.92
2022-08-28T04:08:55.380Z,17.89
2022-08-28T04:11:45.812Z,17.88
2022-08-28T04:14:31.296Z,17.87
2022-08-28T04:17:16.961Z,17.86
2022-08-28T04:20:02.386Z,17.84
2022-08-28T04:22:49.044Z,17.85
2022-08-28T04:25:40.972Z,17.83
2022-08-28T04:28:27.458Z,17.84
2022-08-28T04:31:13.477Z,17.85
2022-08-28T04:34:00.948Z,17.87
2022-08-28T04:36:46.829Z,17.89
2022-08-28T04:39:33.166Z,17.90
2022-08-28T04:42:19.337Z,17.92
2022-08-28T04:45:06.450Z,17.92
2022-08-28T04:47:52.356Z,17.95
2022-08-28T04:50:43.740Z,17.96
2022-08-28T04:53:29.740Z,17.98
2022-08-28T04:56:15.971Z,17.98
2022-08-28T04:59:02.239Z,17.98
2022-08-28T05:01:47.819Z,17.98
2022-08-28T05:04:33.593Z,17.98
2022-08-28T05:07:19.041Z,18.01
2022-08-28T05:10:05.162Z,18.01
2022-08-28T05:12:51.379Z,18.01
2022-08-28T05:15:40.542Z,18.01
2022-08-28T05:18:26.008Z,18.00
2022-08-28T05:21:20.640Z,18.00
2022-08-28T05:24:07.469Z,18.02
2022-08-28T05:26:53.471Z,18.03
2022-08-28T05:29:39.726Z,18.03
2022-08-28T05:32:24.970Z,18.05
2022-08-28T05:35:10.709Z,18.03
2022-08-28T05:37:56.166Z,17.99
2022-08-28T05:40:47.553Z,17.96
2022-08-28T05:43:33.284Z,17.96
2022-08-28T05:46:20.233Z,17.94
2022-08-28T05:49:09.791Z,17.96
2022-08-28T05:51:55.970Z,17.96
2022-08-28T05:54:41.683Z,17.96
2022-08-28T05:57:27.595Z,17.98
2022-08-28T06:00:13.813Z,18.03
2022-08-28T06:02:59.469Z,18.07
2022-08-28T06:05:45.190Z,18.07
2022-08-28T06:08:31.461Z,18.04
2022-08-28T06:11:20.639Z,18.04
2022-08-28T06:14:10.982Z,18.01
2022-08-28T06:16:57.019Z,18.00
2022-08-28T06:19:42.714Z,17.99
2022-08-28T06:22:28.090Z,17.97
2022-08-28T06:25:14.303Z,17.95
2022-08-28T06:28:00.114Z,17.96
2022-08-28T06:31:08.907Z,17.96
2022-08-28T06:33:51.846Z,17.96
2022-08-28T06:36:41.964Z,17.95
2022-08-28T06:39:27.620Z,17.95
2022-08-28T06:42:13.050Z,17.91
2022-08-28T06:44:58.741Z,17.89
2022-08-28T06:47:44.105Z,17.90
2022-08-28T06:50:29.831Z,17.84
2022-08-28T06:53:17.154Z,17.84
2022-08-28T06:56:07.720Z,17.83
2022-08-28T06:58:55.381Z,17.82
2022-08-28T07:01:41.314Z,17.83
2022-08-28T07:04:27.828Z,17.84
2022-08-28T07:07:31.276Z,17.83
2022-08-28T07:10:18.114Z,17.81
2022-08-28T07:13:05.828Z,17.76
2022-08-28T07:15:52.023Z,17.74
2022-08-28T07:18:38.130Z,17.68
2022-08-28T07:21:23.982Z,17.62
2022-08-28T07:24:11.448Z,17.59
2022-08-28T07:26:57.016Z,17.58
2022-08-28T07:29:42.549Z,17.51
2022-08-28T07:32:28.906Z,17.51
2022-08-28T07:35:14.356Z,17.49
2022-08-28T07:38:00.469Z,17.47
2022-08-28T07:40:46.038Z,17.44
2022-08-28T07:43:49.832Z,17.42
2022-08-28T07:46:35.680Z,17.41
2022-08-28T07:49:21.696Z,17.42
2022-08-28T07:52:09.179Z,17.41
2022-08-28T07:54:56.849Z,17.40
2022-08-28T07:57:43.501Z,17.38
2022-08-28T08:00:29.200Z,17.37
2022-08-28T08:03:15.164Z,17.36
2022-08-28T08:06:03.468Z,17.29
2022-08-28T08:08:49.559Z,17.26
2022-08-28T08:11:35.375Z,17.23
2022-08-28T08:14:21.066Z,17.20
2022-08-28T08:17:07.681Z,17.18
2022-08-28T08:19:55.183Z,17.19
2022-08-28T08:22:40.612Z,17.21
2022-08-28T08:25:26.322Z,17.24
2022-08-28T08:28:11.802Z,17.22
2022-08-28T08:31:08.603Z,17.25
2022-08-28T08:33:57.427Z,17.27
2022-08-28T08:36:43.427Z,17.29
2022-08-28T08:39:29.556Z,17.37
2022-08-28T08:42:27.505Z,17.43
2022-08-28T08:45:21.649Z,17.51
2022-08-28T08:48:13.967Z,17.57
2022-08-28T08:51:11.550Z,17.63
2022-08-28T08:54:08.168Z,17.70
2022-08-28T08:56:56.122Z,17.76
2022-08-28T08:59:42.597Z,17.82
2022-08-28T09:02:37.052Z,17.88
2022-08-28T09:05:37.930Z,17.93
2022-08-28T09:08:41.982Z,17.99
2022-08-28T09:11:46.490Z,18.00
2022-08-28T09:15:05.824Z,18.01
2022-08-28T09:18:03.753Z,18.05
2022-08-28T09:20:51.851Z,18.07
2022-08-28T09:23:37.287Z,18.10
2022-08-28T09:26:25.083Z,18.15
2022-08-28T09:29:19.141Z,18.18
2022-08-28T09:32:33.709Z,18.22
2022-08-28T09:35:29.389Z,18.27
2022-08-28T09:38:21.263Z,18.32
2022-08-28T09:41:33.401Z,18.38
2022-08-28T09:44:19.136Z,18.39
2022-08-28T09:47:04.611Z,18.40
2022-08-28T09:49:50.409Z,18.40
2022-08-28T09:52:36.235Z,18.37
2022-08-28T09:55:35.303Z,18.41
2022-08-28T09:58:21.829Z,18.43
2022-08-28T10:01:36.585Z,18.46
2022-08-28T10:04:42.162Z,18.47
2022-08-28T10:07:41.472Z,18.49
2022-08-28T10:29:20.295Z,18.85
2022-08-28T10:38:37.918Z,18.73
2022-08-28T10:42:03.073Z,18.66
2022-08-28T10:44:58.646Z,18.58
2022-08-28T11:14:02.994Z,19.45
2022-08-28T11:16:50.293Z,19.55
2022-08-28T11:28:25.352Z,20.07
2022-08-28T12:35:28.006Z,20.74
2022-08-28T12:47:25.627Z,20.08
2022-08-28T12:50:33.237Z,20.06
2022-08-28T13:42:07.040Z,20.95
2022-08-28T15:10:22.096Z,21.21
2022-08-28T15:38:49.487Z,21.12
2022-08-28T15:58:54.783Z,21.52
2022-08-28T16:01:41.009Z,21.54
2022-08-28T16:04:27.068Z,21.56
2022-08-28T16:07:13.433Z,21.64
2022-08-28T16:09:59.744Z,21.78
2022-08-28T16:12:47.861Z,21.91
